createdAt,value
2023-03-31T09:25:06.140Z,98361.05
2023-03-31T09:27:59.385Z,98350.71
2023-03-31T09:30:30.978Z,98339.30
2023-03-31T09:33:12.055Z,98335.02
2023-03-31T09:35:39.144Z,98330.16
2023-03-31T09:38:11.700Z,98333.05
2023-03-31T09:40:40.869Z,98327.96
2023-03-31T09:43:11.176Z,98328.08
2023-03-31T09:45:38.795Z,98328.48
2023-03-31T09:48:11.988Z,98325.50
2023-03-31T09:50:55.602Z,98324.11
2023-03-31T09:53:33.970Z,98320.20
2023-03-31T09:56:03.245Z,98319.61
2023-03-31T09:58:31.261Z,98319.46
2023-03-31T10:01:01.093Z,98320.98
2023-03-31T10:03:29.076Z,98315.96
2023-03-31T10:05:58.341Z,98314.41
2023-03-31T10:08:38.908Z,98318.96
2023-03-31T10:11:06.740Z,98317.95
2023-03-31T10:14:01.772Z,98311.52
2023-03-31T10:16:29.229Z,98308.44
2023-03-31T10:19:30.534Z,98302.71
2023-03-31T10:22:02.260Z,98303.48
2023-03-31T10:24:38.191Z,98299.58
2023-03-31T10:27:06.569Z,98299.02
2023-03-31T10:29:33.955Z,98295.24
2023-03-31T10:32:19.195Z,98291.92
2023-03-31T10:34:46.072Z,98292.39
2023-03-31T10:37:16.575Z,98286.70
2023-03-31T10:39:47.012Z,98282.17
2023-03-31T10:42:23.455Z,98278.52
2023-03-31T10:44:50.424Z,98275.98
2023-03-31T10:47:21.292Z,98273.45
2023-03-31T10:49:50.936Z,98277.21
2023-03-31T10:52:25.299Z,98272.80
2023-03-31T10:54:59.237Z,98271.07
2023-03-31T10:57:48.396Z,98266.41
2023-03-31T11:00:57.319Z,98263.38
2023-03-31T11:03:37.479Z,98264.40
2023-03-31T11:06:30.610Z,98261.89
2023-03-31T11:09:00.614Z,98260.19
2023-03-31T11:11:47.557Z,98255.19
2023-03-31T11:14:32.979Z,98253.23
2023-03-31T11:17:13.840Z,98251.06
2023-03-31T11:20:13.634Z,98246.72
2023-03-31T11:22:47.790Z,98239.59
2023-03-31T11:25:19.052Z,98232.15
2023-03-31T11:27:58.125Z,98230.71
2023-03-31T11:31:01.303Z,98228.84
2023-03-31T11:33:48.318Z,98231.16
2023-03-31T11:36:36.149Z,98224.67
2023-03-31T11:39:32.970Z,98222.54
2023-03-31T11:42:21.059Z,98220.86
2023-03-31T11:44:52.439Z,98223.34
2023-03-31T11:47:30.598Z,98221.52
2023-03-31T11:50:04.343Z,98221.70
2023-03-31T11:52:33.954Z,98219.05
2023-03-31T11:55:06.286Z,98212.31
2023-03-31T11:58:01.043Z,98203.00
2023-03-31T12:01:10.291Z,98198.42
2023-03-31T12:03:56.857Z,98195.33
2023-03-31T12:06:27.430Z,98190.36
2023-03-31T12:09:07.534Z,98185.98
2023-03-31T12:11:57.027Z,98185.94
2023-03-31T12:14:34.324Z,98178.81
2023-03-31T12:17:08.692Z,98172.74
2023-03-31T12:19:48.124Z,98172.35
2023-03-31T12:22:18.061Z,98167.86
2023-03-31T12:24:46.419Z,98176.68
2023-03-31T12:27:27.138Z,98171.83
2023-03-31T12:29:58.727Z,98164.74
2023-03-31T12:32:30.919Z,98164.50
2023-03-31T12:35:06.810Z,98161.98
2023-03-31T12:37:59.548Z,98161.13
2023-03-31T12:40:47.780Z,98156.68
2023-03-31T12:43:15.416Z,98154.02
2023-03-31T12:45:46.160Z,98153.40
2023-03-31T12:48:17.260Z,98145.97
2023-03-31T12:51:10.823Z,98157.02
2023-03-31T12:53:57.112Z,98148.95
2023-03-31T12:56:25.253Z,98147.81
2023-03-31T12:58:52.705Z,98143.42
2023-03-31T13:01:23.084Z,98140.64
2023-03-31T13:03:53.234Z,98135.31
2023-03-31T13:06:29.081Z,98129.94
2023-03-31T13:08:55.925Z,98126.29
2023-03-31T13:11:32.582Z,98125.20
2023-03-31T13:14:02.697Z,98121.85
2023-03-31T13:16:30.636Z,98122.89
2023-03-31T13:18:57.577Z,98123.59
2023-03-31T13:21:24.396Z,98115.54
2023-03-31T13:23:51.154Z,98114.39
2023-03-31T13:26:32.899Z,98113.40
2023-03-31T13:29:23.908Z,98109.67
2023-03-31T13:32:02.914Z,98111.64
2023-03-31T13:34:42.109Z,98111.02
2023-03-31T13:37:24.051Z,98109.66
2023-03-31T13:40:15.375Z,98099.44
2023-03-31T13:42:58.064Z,98102.81
2023-03-31T13:45:36.986Z,98098.66
2023-03-31T13:48:13.447Z,98097.73
2023-03-31T13:50:49.079Z,98094.39
2023-03-31T13:53:28.528Z,98092.25
2023-03-31T13:56:26.429Z,98094.65
2023-03-31T13:59:30.451Z,98093.77
2023-03-31T14:02:34.305Z,98097.98
2023-03-31T14:05:48.987Z,98094.34
2023-03-31T14:08:23.811Z,98095.84
2023-03-31T14:10:51.343Z,98101.98
2023-03-31T14:13:19.064Z,98096.92
2023-03-31T14:15:49.274Z,98095.62
2023-03-31T14:18:36.768Z,98095.65
2023-03-31T14:21:28.686Z,98094.89
2023-03-31T14:24:01.684Z,98091.13
2023-03-31T14:27:05.978Z,98095.23
2023-03-31T14:29:41.049Z,98092.06
2023-03-31T14:32:32.718Z,98092.54
2023-03-31T14:35:04.567Z,98091.95
2023-03-31T14:37:31.468Z,98096.08
2023-03-31T14:39:58.442Z,98091.42
2023-03-31T14:42:49.080Z,98092.89
2023-03-31T14:45:30.798Z,98090.83
2023-03-31T14:48:17.869Z,98089.46
2023-03-31T14:50:45.925Z,98086.79
2023-03-31T14:53:17.349Z,98088.77
2023-03-31T14:58:41.206Z,98088.17
2023-03-31T15:01:08.992Z,98088.22
2023-03-31T15:03:40.934Z,98088.41
2023-03-31T15:06:08.245Z,98086.17
2023-03-31T15:08:36.226Z,98085.30
2023-03-31T15:11:12.801Z,98084.58
2023-03-31T15:14:00.663Z,98087.63
2023-03-31T15:16:41.883Z,98092.68
2023-03-31T15:19:22.060Z,98093.89
2023-03-31T15:21:56.541Z,98089.26
2023-03-31T15:24:23.434Z,98092.08
2023-03-31T15:26:57.382Z,98095.16
2023-03-31T15:29:43.964Z,98093.06
2023-03-31T15:32:16.910Z,98090.91
2023-03-31T15:34:45.840Z,98091.45
2023-03-31T15:37:14.941Z,98092.71
2023-03-31T15:39:44.683Z,98096.56
2023-03-31T15:42:11.585Z,98097.64
2023-03-31T15:44:44.181Z,98096.96
2023-03-31T15:47:18.429Z,98093.85
2023-03-31T15:49:49.737Z,98092.39
2023-03-31T15:52:21.530Z,98088.48
2023-03-31T15:54:48.660Z,98088.39
2023-03-31T15:57:18.877Z,98083.79
2023-03-31T15:59:55.270Z,98089.06
2023-03-31T16:02:25.459Z,98083.86
2023-03-31T16:04:57.723Z,98085.73
2023-03-31T16:07:26.734Z,98081.66
2023-03-31T16:10:15.358Z,98082.73
2023-03-31T16:12:52.102Z,98084.15
2023-03-31T16:15:30.132Z,98079.02
2023-03-31T16:18:02.539Z,98081.56
2023-03-31T16:20:42.491Z,98081.83
2023-03-31T16:23:24.814Z,98080.83
2023-03-31T16:25:54.502Z,98082.57
2023-03-31T16:28:28.500Z,98082.64
2023-03-31T16:31:01.273Z,98081.98
2023-03-31T16:33:53.466Z,98083.36
2023-03-31T16:36:23.086Z,98082.30
2023-03-31T16:38:58.153Z,98083.65
2023-03-31T16:41:29.774Z,98082.58
2023-03-31T16:43:58.460Z,98082.99
2023-03-31T16:46:27.383Z,98083.40
2023-03-31T16:48:57.620Z,98086.01
2023-03-31T16:51:26.531Z,98085.42
2023-03-31T16:53:57.541Z,98083.63
2023-03-31T16:56:28.610Z,98081.36
2023-03-31T16:58:58.518Z,98084.58
2023-03-31T17:01:27.248Z,98085.66
2023-03-31T17:03:56.390Z,98084.56
2023-03-31T17:06:24.981Z,98084.85
2023-03-31T17:08:54.540Z,98085.48
2023-03-31T17:11:27.749Z,98086.30
2023-03-31T17:20:13.357Z,98092.77
2023-03-31T17:22:40.236Z,98091.04
2023-03-31T17:25:07.758Z,98091.46
2023-03-31T17:27:34.905Z,98085.89
2023-03-31T17:32:36.314Z,98083.38
2023-03-31T17:35:03.794Z,98089.77
2023-03-31T17:37:31.443Z,98086.69
2023-03-31T17:39:58.606Z,98086.30
2023-03-31T17:42:26.507Z,98087.42
2023-03-31T17:44:53.958Z,98087.45
2023-03-31T17:47:20.741Z,98080.76
2023-03-31T17:49:47.541Z,98077.37
2023-03-31T17:52:14.605Z,98078.03
2023-03-31T17:54:48.757Z,98077.73
2023-03-31T17:57:17.304Z,98080.02
2023-03-31T17:59:51.195Z,98077.20
2023-03-31T18:02:18.185Z,98079.40
2023-03-31T18:04:45.132Z,98082.78
2023-03-31T18:07:12.452Z,98084.36
2023-03-31T18:09:40.092Z,98086.82
2023-03-31T18:12:07.046Z,98084.20
2023-03-31T18:14:35.002Z,98085.77
2023-03-31T18:17:02.062Z,98081.90
2023-03-31T18:19:29.608Z,98081.93
2023-03-31T18:21:56.476Z,98084.17
2023-03-31T18:24:23.415Z,98082.46
2023-03-31T18:26:50.371Z,98079.56
2023-03-31T18:29:17.998Z,98078.39
2023-03-31T18:31:45.309Z,98074.77
2023-03-31T18:34:13.173Z,98076.39
2023-03-31T18:36:42.908Z,98075.14
2023-03-31T18:39:10.204Z,98072.23
2023-03-31T18:41:40.303Z,98071.28
2023-03-31T18:44:07.068Z,98068.34
2023-03-31T18:46:34.071Z,98067.28
2023-03-31T18:49:01.028Z,98068.70
2023-03-31T18:51:27.973Z,98068.08
2023-03-31T18:53:54.704Z,98068.92
2023-03-31T18:56:22.586Z,98065.98
2023-03-31T18:58:51.263Z,98070.05
2023-03-31T19:01:19.795Z,98071.61
2023-03-31T19:03:47.924Z,98069.38
2023-03-31T19:06:17.166Z,98069.13
2023-03-31T19:08:45.805Z,98065.88
2023-03-31T19:11:13.558Z,98063.84
2023-03-31T19:13:42.273Z,98061.39
2023-03-31T19:16:28.890Z,98054.95
2023-03-31T19:19:03.418Z,98061.42
2023-03-31T19:21:32.683Z,98063.00
2023-03-31T19:23:59.525Z,98054.46
2023-03-31T19:26:28.465Z,98053.98
2023-03-31T19:28:56.425Z,98055.06
2023-03-31T19:31:23.717Z,98056.11
2023-03-31T19:33:51.717Z,98055.20
2023-03-31T19:36:18.875Z,98056.92
2023-03-31T19:38:45.798Z,98054.09
2023-03-31T19:41:13.788Z,98052.19
2023-03-31T19:43:40.610Z,98051.80
2023-03-31T19:46:07.517Z,98050.84
2023-03-31T19:48:35.009Z,98046.90
2023-03-31T19:51:07.996Z,98040.36
2023-03-31T19:53:36.898Z,98035.70
2023-03-31T19:56:15.227Z,98033.86
2023-03-31T19:58:43.972Z,98035.05
2023-03-31T20:01:16.979Z,98033.66
2023-03-31T20:03:45.293Z,98029.37
2023-03-31T20:06:13.634Z,98040.10
2023-03-31T20:08:44.182Z,98036.69
2023-03-31T20:11:12.893Z,98035.02
2023-03-31T20:13:41.371Z,98033.77
2023-03-31T20:16:17.615Z,98033.14
2023-03-31T20:19:15.900Z,98031.44
2023-03-31T20:21:43.639Z,98033.70
2023-03-31T20:24:15.782Z,98034.06
2023-03-31T20:26:42.887Z,98034.02
2023-03-31T20:29:09.841Z,98033.45
2023-03-31T20:31:39.748Z,98036.86
2023-03-31T20:34:11.634Z,98034.29
2023-03-31T20:36:39.543Z,98032.31
2023-03-31T20:39:06.463Z,98029.78
2023-03-31T20:41:34.369Z,98027.68
2023-03-31T20:44:01.377Z,98023.35
2023-03-31T20:46:28.925Z,98028.66
2023-03-31T20:48:56.798Z,98030.43
2023-03-31T20:51:31.874Z,98033.58
2023-03-31T20:53:59.414Z,98037.95
2023-03-31T20:56:28.489Z,98038.98
2023-03-31T20:58:58.334Z,98040.92
2023-03-31T21:01:26.715Z,98050.92
2023-03-31T21:03:54.456Z,98058.14
2023-03-31T21:06:21.713Z,98056.70
2023-03-31T21:08:53.103Z,98059.28
2023-03-31T21:11:21.127Z,98057.98
2023-03-31T21:13:48.256Z,98061.58
2023-03-31T21:16:15.878Z,98057.23
2023-03-31T21:18:45.018Z,98051.44
2023-03-31T21:21:16.061Z,98047.85
2023-03-31T21:23:42.805Z,98046.63
2023-03-31T21:26:11.174Z,98045.89
2023-03-31T21:28:38.059Z,98040.91
2023-03-31T21:31:07.052Z,98037.66
2023-03-31T21:33:35.239Z,98032.30
2023-03-31T21:36:02.306Z,98033.41
2023-03-31T21:38:29.688Z,98026.92
2023-03-31T21:40:56.945Z,98029.58
2023-03-31T21:43:25.683Z,98027.48
2023-03-31T21:45:57.466Z,98024.66
2023-03-31T21:48:25.871Z,98022.48
2023-03-31T21:50:54.290Z,98026.34
2023-03-31T21:53:22.314Z,98023.69
2023-03-31T21:55:54.786Z,98025.24
2023-03-31T21:58:24.667Z,98027.70
2023-03-31T22:00:52.223Z,98030.83
2023-03-31T22:03:27.301Z,98032.54
2023-03-31T22:05:56.288Z,98033.34
2023-03-31T22:08:23.589Z,98032.51
2023-03-31T22:10:51.446Z,98034.41
2023-03-31T22:13:22.541Z,98032.42
2023-03-31T22:15:50.110Z,98033.83
2023-03-31T22:18:19.208Z,98028.50
2023-03-31T22:20:46.355Z,98024.94
2023-03-31T22:23:13.402Z,98023.02
2023-03-31T22:25:40.949Z,98020.52
2023-03-31T22:28:08.708Z,98020.27
2023-03-31T22:30:37.716Z,98022.94
2023-03-31T22:33:05.655Z,98023.36
2023-03-31T22:35:32.793Z,98024.35
2023-03-31T22:38:00.926Z,98026.57
2023-03-31T22:40:28.896Z,98033.30
2023-03-31T22:42:57.951Z,98037.27
2023-03-31T22:45:25.178Z,98034.79
2023-03-31T22:47:52.355Z,98034.86
2023-03-31T22:50:19.498Z,98033.45
2023-03-31T22:52:46.668Z,98033.68
2023-03-31T22:55:13.818Z,98036.28
2023-03-31T22:57:40.777Z,98038.41
2023-03-31T23:00:09.231Z,98034.69
2023-03-31T23:02:36.795Z,98026.77
2023-03-31T23:05:04.171Z,98027.10
2023-03-31T23:07:33.436Z,98024.08
2023-03-31T23:10:00.504Z,98027.89
2023-03-31T23:12:27.964Z,98030.16
2023-03-31T23:14:56.724Z,98029.81
2023-03-31T23:17:23.981Z,98035.61
2023-03-31T23:19:50.924Z,98031.63
2023-03-31T23:22:18.379Z,98030.60
2023-03-31T23:24:45.323Z,98042.84
2023-03-31T23:27:12.372Z,98039.42
2023-03-31T23:29:40.853Z,98040.04
2023-03-31T23:32:08.989Z,98036.63
2023-03-31T23:34:41.090Z,98032.27
2023-03-31T23:37:09.408Z,98031.06
2023-03-31T23:39:38.354Z,98030.05
2023-03-31T23:42:06.320Z,98031.95
2023-03-31T23:44:33.684Z,98030.55
2023-03-31T23:47:00.515Z,98033.04
2023-03-31T23:49:27.682Z,98032.71
2023-03-31T23:51:56.072Z,98030.33
2023-03-31T23:54:22.989Z,98031.52
2023-03-31T23:56:50.757Z,98032.02
2023-03-31T23:59:18.142Z,98027.02
